WC StCyr

Date de la prise de vue : 30/09/2022 15:42:09
N'ayant pas de Météo à StCyr, voilà le METAR et le TAF de Villacoublay :
2022/09/30 13:30 LFPV 301330Z AUTO 22009KT 190V250 9999 FEW043 16/06 Q1012 NOSIG
2022/09/30 09:19 TAF LFPV 300800Z 3009/0109 21008KT CAVOK TX16/3014Z TN12/0100Z BECMG 3022/3024 21015G30KT 4500 -RA BKN010 TEMPO 0100/0107 2500 RA BKN004 BECMG 0107/0109 27010G30KT 9999 BKN025